Time;durP1;ratioP1;P1;durP2;ratioP2;P2;SDS_P1;SDS_P2;PMS_P1;PMS_P2;Temp;Humidity;BMP_temperature;BMP_pressure;BME280_temperature;BME280_humidity;BME280_pressure;Samples;Min_cycle;Max_cycle;Signal;HPM_P1;HPM_P2
2024/01/24 00:00:07;;;;;;;4.57;1.73;;;;;;;;;;686757;28;1825;-70
2024/01/24 00:00:31;;;;;;;5.47;1.63;;;;;;;;;;686756;28;948;-71
2024/01/24 00:00:51;;;;;;;3.93;1.60;;;;;;;;;;686973;28;2333;-66
2024/01/24 00:01:13;;;;;;;3.28;1.50;;;;;;;;;;687879;28;929;-69
2024/01/24 00:01:33;;;;;;;4.35;1.67;;;;;;;;;;685427;28;4327;-68
2024/01/24 00:01:53;;;;;;;5.18;1.70;;;;;;;;;;680434;29;1486;-66
2024/01/24 00:02:14;;;;;;;6.50;1.67;;;;;;;;;;682316;29;857;-64
2024/01/24 00:02:34;;;;;;;4.97;1.50;;;;;;;;;;682599;29;842;-70
2024/01/24 00:02:54;;;;;;;4.50;1.65;;;;;;;;;;677958;29;1701;-64
2024/01/24 00:03:15;;;;;;;4.57;1.53;;;;;;;;;;679773;29;786;-64
2024/01/24 00:03:35;;;;;;;5.45;1.67;;;;;;;;;;682323;28;826;-65
2024/01/24 00:03:55;;;;;;;5.33;1.50;;;;;;;;;;683861;28;1454;-65
2024/01/24 00:04:16;;;;;;;5.90;1.50;;;;;;;;;;684748;28;909;-67
2024/01/24 00:04:36;;;;;;;3.40;1.50;;;;;;;;;;683408;28;4598;-67
2024/01/24 00:04:57;;;;;;;3.73;1.47;;;;;;;;;;686454;28;995;-65
2024/01/24 00:05:17;;;;;;;5.20;1.80;;;;;;;;;;687870;28;884;-65
2024/01/24 00:05:38;;;;;;;5.28;1.95;;;;;;;;;;686745;28;921;-66
2024/01/24 00:05:59;;;;;;;4.13;1.88;;;;;;;;;;684358;28;1553;-64
2024/01/24 00:06:20;;;;;;;4.80;1.67;;;;;;;;;;685638;28;982;-64
2024/01/24 00:06:40;;;;;;;4.65;1.50;;;;;;;;;;686588;28;1178;-65
2024/01/24 00:07:00;;;;;;;4.77;1.70;;;;;;;;;;684509;28;1555;-65
2024/01/24 00:07:21;;;;;;;4.90;1.75;;;;;;;;;;687249;28;767;-65
2024/01/24 00:07:42;;;;;;;4.47;1.65;;;;;;;;;;682271;28;4265;-65
2024/01/24 00:08:03;;;;;;;3.72;1.48;;;;;;;;;;683202;28;3570;-64
2024/01/24 00:08:25;;;;;;;6.03;1.50;;;;;;;;;;682368;28;909;-66
2024/01/24 00:08:47;;;;;;;6.30;1.60;;;;;;;;;;683917;28;810;-64
2024/01/24 00:09:09;;;;;;;5.45;1.70;;;;;;;;;;683990;28;881;-67
2024/01/24 00:09:31;;;;;;;4.45;1.70;;;;;;;;;;685253;28;1122;-64
2024/01/24 00:09:52;;;;;;;5.18;1.70;;;;;;;;;;681248;28;1403;-65
2024/01/24 00:10:12;;;;;;;5.43;1.63;;;;;;;;;;682662;28;833;-64
2024/01/24 00:10:32;;;;;;;4.55;1.40;;;;;;;;;;683668;28;4506;-65
2024/01/24 00:10:53;;;;;;;3.90;1.37;;;;;;;;;;679737;28;2805;-64
2024/01/24 00:11:13;;;;;;;4.50;1.48;;;;;;;;;;683464;28;798;-63
2024/01/24 00:11:34;;;;;;;5.03;1.60;;;;;;;;;;682801;28;822;-65
2024/01/24 00:11:54;;;;;;;3.67;1.30;;;;;;;;;;683789;28;1766;-67
2024/01/24 00:12:14;;;;;;;4.43;1.40;;;;;;;;;;687017;28;894;-67
2024/01/24 00:12:35;;;;;;;4.60;1.70;;;;;;;;;;687384;28;912;-67
2024/01/24 00:12:56;;;;;;;5.05;1.80;;;;;;;;;;683965;28;1724;-69
2024/01/24 00:13:19;;;;;;;4.35;1.88;;;;;;;;;;684824;28;837;-66
2024/01/24 00:13:39;;;;;;;4.22;1.60;;;;;;;;;;684385;28;4244;-70
2024/01/24 00:13:59;;;;;;;4.97;1.50;;;;;;;;;;683886;28;2275;-65
2024/01/24 00:14:20;;;;;;;3.72;1.50;;;;;;;;;;684343;28;921;-65
2024/01/24 00:14:40;;;;;;;4.30;1.60;;;;;;;;;;684945;28;798;-66
2024/01/24 00:15:00;;;;;;;4.65;1.58;;;;;;;;;;683184;28;1509;-66
2024/01/24 00:15:21;;;;;;;4.70;1.57;;;;;;;;;;685030;28;802;-66
2024/01/24 00:15:42;;;;;;;3.80;1.40;;;;;;;;;;685135;28;744;-64
2024/01/24 00:16:04;;;;;;;4.57;1.53;;;;;;;;;;684161;28;1858;-65
2024/01/24 00:16:24;;;;;;;4.88;1.55;;;;;;;;;;684908;28;916;-65
2024/01/24 00:16:44;;;;;;;5.43;1.65;;;;;;;;;;686235;28;4243;-67
2024/01/24 00:17:05;;;;;;;3.90;1.80;;;;;;;;;;686078;28;1957;-67
2024/01/24 00:17:25;;;;;;;3.50;1.52;;;;;;;;;;685936;28;653;-66
2024/01/24 00:17:46;;;;;;;3.60;1.40;;;;;;;;;;686692;28;824;-65
2024/01/24 00:18:06;;;;;;;3.70;2.17;;;;;;;;;;687634;28;2466;-65
2024/01/24 00:18:27;;;;;;;3.90;1.80;;;;;;;;;;688983;28;798;-64
2024/01/24 00:18:47;;;;;;;3.75;1.50;;;;;;;;;;686449;28;861;-66
2024/01/24 00:19:07;;;;;;;5.53;1.43;;;;;;;;;;684652;28;1181;-64
2024/01/24 00:19:28;;;;;;;4.30;1.43;;;;;;;;;;683082;28;4371;-67
2024/01/24 00:19:48;;;;;;;3.40;1.27;;;;;;;;;;682633;28;1237;-67
2024/01/24 00:20:09;;;;;;;4.37;1.30;;;;;;;;;;681333;29;1441;-67
2024/01/24 00:20:29;;;;;;;4.00;1.40;;;;;;;;;;681905;29;1004;-68
2024/01/24 00:20:51;;;;;;;3.47;1.80;;;;;;;;;;680331;28;2281;-66
2024/01/24 00:21:11;;;;;;;3.58;1.73;;;;;;;;;;680970;28;965;-65
2024/01/24 00:21:31;;;;;;;3.53;1.47;;;;;;;;;;682751;28;1016;-66
2024/01/24 00:21:52;;;;;;;4.90;1.55;;;;;;;;;;685606;28;2288;-65
2024/01/24 00:22:14;;;;;;;3.93;1.40;;;;;;;;;;688433;28;870;-72
2024/01/24 00:22:34;;;;;;;4.05;1.40;;;;;;;;;;686788;28;5046;-67
2024/01/24 00:22:54;;;;;;;4.22;1.48;;;;;;;;;;686379;28;1461;-67
2024/01/24 00:23:15;;;;;;;4.27;1.50;;;;;;;;;;687649;28;893;-69
2024/01/24 00:23:35;;;;;;;4.32;1.45;;;;;;;;;;687684;28;1214;-69
2024/01/24 00:23:56;;;;;;;4.07;1.43;;;;;;;;;;686254;28;1704;-66
2024/01/24 00:24:16;;;;;;;3.90;1.50;;;;;;;;;;687011;28;901;-68
2024/01/24 00:24:37;;;;;;;4.68;1.50;;;;;;;;;;685332;28;857;-64
2024/01/24 00:24:57;;;;;;;4.20;1.47;;;;;;;;;;683664;28;1878;-63
2024/01/24 00:25:17;;;;;;;6.32;1.50;;;;;;;;;;684825;28;925;-70
2024/01/24 00:25:38;;;;;;;5.90;1.50;;;;;;;;;;686332;28;4260;-69
2024/01/24 00:25:58;;;;;;;4.38;1.50;;;;;;;;;;686904;28;1819;-67
2024/01/24 00:26:18;;;;;;;4.17;1.47;;;;;;;;;;688031;28;770;-68
2024/01/24 00:26:39;;;;;;;4.93;1.50;;;;;;;;;;687774;28;873;-73
2024/01/24 00:26:59;;;;;;;4.07;1.52;;;;;;;;;;686133;28;2330;-64
2024/01/24 00:27:19;;;;;;;4.87;1.40;;;;;;;;;;687784;28;889;-67
2024/01/24 00:27:40;;;;;;;3.88;1.48;;;;;;;;;;687005;28;1004;-66
2024/01/24 00:28:00;;;;;;;3.60;1.70;;;;;;;;;;686250;28;1481;-65
2024/01/24 00:28:26;;;;;;;4.43;1.42;;;;;;;;;;687567;28;897;-68
2024/01/24 00:28:46;;;;;;;3.92;1.60;;;;;;;;;;684414;28;4635;-65
2024/01/24 00:29:07;;;;;;;3.35;1.50;;;;;;;;;;683619;28;1871;-71
2024/01/24 00:29:28;;;;;;;4.35;1.30;;;;;;;;;;685085;28;937;-68
2024/01/24 00:29:48;;;;;;;4.10;1.50;;;;;;;;;;685097;28;794;-67
2024/01/24 00:30:09;;;;;;;5.05;1.52;;;;;;;;;;683444;28;1066;-69
2024/01/24 00:30:29;;;;;;;4.33;1.40;;;;;;;;;;684623;28;833;-67
2024/01/24 00:30:49;;;;;;;4.93;1.73;;;;;;;;;;683663;28;2235;-66
2024/01/24 00:31:10;;;;;;;4.40;1.60;;;;;;;;;;684127;28;928;-66
2024/01/24 00:31:30;;;;;;;4.03;1.50;;;;;;;;;;683095;28;4272;-66
2024/01/24 00:31:52;;;;;;;3.83;1.57;;;;;;;;;;683519;28;1859;-69
2024/01/24 00:32:12;;;;;;;4.30;1.52;;;;;;;;;;683425;28;992;-73
2024/01/24 00:32:33;;;;;;;5.30;2.30;;;;;;;;;;685032;28;795;-67
2024/01/24 00:32:53;;;;;;;5.82;2.33;;;;;;;;;;684098;28;1695;-64
2024/01/24 00:33:15;;;;;;;3.77;1.60;;;;;;;;;;684776;28;809;-66
2024/01/24 00:33:35;;;;;;;3.70;1.40;;;;;;;;;;684921;28;897;-66
2024/01/24 00:33:56;;;;;;;4.27;1.40;;;;;;;;;;683985;28;1958;-63
2024/01/24 00:34:16;;;;;;;5.18;1.50;;;;;;;;;;684895;28;917;-65
2024/01/24 00:34:36;;;;;;;4.63;1.43;;;;;;;;;;683212;28;4278;-66
2024/01/24 00:34:57;;;;;;;3.88;1.42;;;;;;;;;;684495;28;1227;-64
2024/01/24 00:35:17;;;;;;;3.27;1.50;;;;;;;;;;685054;28;870;-65
2024/01/24 00:35:38;;;;;;;3.55;1.45;;;;;;;;;;684918;28;893;-65
2024/01/24 00:35:58;;;;;;;4.23;1.60;;;;;;;;;;682250;28;1436;-66
2024/01/24 00:36:19;;;;;;;5.78;2.00;;;;;;;;;;685484;28;857;-65
2024/01/24 00:36:39;;;;;;;5.20;2.00;;;;;;;;;;687155;28;3746;-66
2024/01/24 00:36:59;;;;;;;5.43;1.63;;;;;;;;;;685785;28;4753;-65
2024/01/24 00:37:19;;;;;;;4.68;1.73;;;;;;;;;;687131;28;860;-65
2024/01/24 00:37:40;;;;;;;3.50;1.40;;;;;;;;;;686632;28;4376;-67
2024/01/24 00:38:00;;;;;;;4.18;1.48;;;;;;;;;;686329;28;2195;-65
2024/01/24 00:38:21;;;;;;;3.73;1.40;;;;;;;;;;692938;28;825;-66
2024/01/24 00:38:41;;;;;;;2.53;1.40;;;;;;;;;;692841;28;960;-64
2024/01/24 00:39:01;;;;;;;4.60;1.80;;;;;;;;;;690723;28;2338;-64
2024/01/24 00:39:22;;;;;;;4.40;1.97;;;;;;;;;;691668;28;1157;-65
2024/01/24 00:39:42;;;;;;;3.33;1.60;;;;;;;;;;692424;28;853;-65
2024/01/24 00:40:03;;;;;;;3.60;1.40;;;;;;;;;;691354;28;1838;-67
2024/01/24 00:40:23;;;;;;;4.28;1.45;;;;;;;;;;687643;28;1313;-65
2024/01/24 00:40:44;;;;;;;5.40;1.63;;;;;;;;;;683791;28;4416;-66
2024/01/24 00:41:04;;;;;;;4.07;1.50;;;;;;;;;;683975;28;2138;-65
2024/01/24 00:41:24;;;;;;;3.80;1.57;;;;;;;;;;685069;28;972;-68
2024/01/24 00:41:46;;;;;;;3.60;1.70;;;;;;;;;;684598;28;814;-66
2024/01/24 00:42:06;;;;;;;3.83;1.60;;;;;;;;;;683868;28;1472;-65
2024/01/24 00:42:27;;;;;;;4.30;1.50;;;;;;;;;;685086;28;790;-65
2024/01/24 00:42:48;;;;;;;5.23;1.40;;;;;;;;;;684723;28;917;-64
2024/01/24 00:43:08;;;;;;;5.00;1.50;;;;;;;;;;684260;28;1832;-65
2024/01/24 00:43:28;;;;;;;4.17;1.50;;;;;;;;;;684585;28;4366;-67
2024/01/24 00:43:48;;;;;;;4.55;1.63;;;;;;;;;;687391;28;869;-65
2024/01/24 00:44:09;;;;;;;4.77;1.70;;;;;;;;;;686477;28;1430;-68
2024/01/24 00:44:29;;;;;;;3.80;1.50;;;;;;;;;;687240;28;5198;-65
2024/01/24 00:44:50;;;;;;;3.77;1.40;;;;;;;;;;686127;28;1497;-66
2024/01/24 00:45:11;;;;;;;4.22;1.60;;;;;;;;;;687527;28;1045;-72
2024/01/24 00:45:31;;;;;;;3.70;1.42;;;;;;;;;;687548;28;884;-69
2024/01/24 00:45:52;;;;;;;5.87;1.60;;;;;;;;;;686004;28;1760;-66
2024/01/24 00:46:12;;;;;;;5.72;1.92;;;;;;;;;;687452;28;1032;-65
2024/01/24 00:46:33;;;;;;;4.10;1.60;;;;;;;;;;682772;28;4466;-66
2024/01/24 00:46:53;;;;;;;2.93;1.50;;;;;;;;;;680061;29;1562;-67
2024/01/24 00:47:13;;;;;;;4.53;1.80;;;;;;;;;;680806;29;798;-71
2024/01/24 00:47:34;;;;;;;4.67;1.43;;;;;;;;;;683698;28;739;-66
2024/01/24 00:47:54;;;;;;;4.88;1.50;;;;;;;;;;682771;28;1043;-64
2024/01/24 00:48:14;;;;;;;4.20;1.83;;;;;;;;;;682418;28;866;-63
2024/01/24 00:48:35;;;;;;;3.17;1.42;;;;;;;;;;683526;28;1587;-65
2024/01/24 00:48:55;;;;;;;3.07;1.30;;;;;;;;;;683465;28;1053;-63
2024/01/24 00:49:17;;;;;;;3.67;1.35;;;;;;;;;;684824;28;866;-65
2024/01/24 00:49:37;;;;;;;4.00;1.50;;;;;;;;;;683872;28;4325;-64
2024/01/24 00:49:57;;;;;;;5.17;1.70;;;;;;;;;;683233;28;1702;-69
2024/01/24 00:50:18;;;;;;;4.68;1.65;;;;;;;;;;684978;28;1058;-70
2024/01/24 00:50:38;;;;;;;3.90;1.60;;;;;;;;;;687060;28;937;-69
2024/01/24 00:50:59;;;;;;;3.20;1.40;;;;;;;;;;686632;28;1705;-68
2024/01/24 00:51:19;;;;;;;3.80;1.40;;;;;;;;;;687207;28;928;-68
2024/01/24 00:51:39;;;;;;;3.78;1.60;;;;;;;;;;684996;28;857;-67
2024/01/24 00:52:00;;;;;;;4.50;1.67;;;;;;;;;;683581;28;2099;-67
2024/01/24 00:52:20;;;;;;;3.83;1.47;;;;;;;;;;685041;28;766;-67
2024/01/24 00:52:40;;;;;;;4.03;1.30;;;;;;;;;;684028;28;4464;-67
2024/01/24 00:53:04;;;;;;;5.00;1.50;;;;;;;;;;681955;28;1814;-66
2024/01/24 00:53:26;;;;;;;5.88;1.90;;;;;;;;;;683949;28;917;-65
2024/01/24 00:53:51;;;;;;;4.93;1.67;;;;;;;;;;681142;28;1293;-63
2024/01/24 00:54:11;;;;;;;4.00;1.70;;;;;;;;;;683114;28;1906;-64
2024/01/24 00:54:31;;;;;;;5.13;1.60;;;;;;;;;;684355;28;810;-65
2024/01/24 00:54:52;;;;;;;4.63;1.60;;;;;;;;;;683456;28;2364;-68
2024/01/24 00:55:12;;;;;;;4.65;1.60;;;;;;;;;;684894;28;1128;-66
2024/01/24 00:55:34;;;;;;;4.67;1.80;;;;;;;;;;685219;28;4263;-65
2024/01/24 00:55:56;;;;;;;3.80;1.55;;;;;;;;;;686475;28;2635;-65
2024/01/24 00:56:17;;;;;;;3.55;1.50;;;;;;;;;;687333;28;833;-69
2024/01/24 00:56:37;;;;;;;2.75;1.40;;;;;;;;;;690318;28;936;-64
2024/01/24 00:56:58;;;;;;;4.03;1.67;;;;;;;;;;689320;28;1887;-62
2024/01/24 00:57:18;;;;;;;4.67;1.73;;;;;;;;;;689813;28;858;-64
2024/01/24 00:57:38;;;;;;;4.47;1.80;;;;;;;;;;689955;28;937;-65
2024/01/24 00:57:59;;;;;;;4.57;1.67;;;;;;;;;;686492;28;2309;-65
2024/01/24 00:58:19;;;;;;;6.13;1.73;;;;;;;;;;687188;28;1010;-65
2024/01/24 00:58:39;;;;;;;5.03;1.70;;;;;;;;;;684362;28;4259;-64
2024/01/24 00:59:00;;;;;;;3.93;1.60;;;;;;;;;;683691;28;1875;-65
2024/01/24 00:59:20;;;;;;;4.37;1.80;;;;;;;;;;684951;28;775;-64
2024/01/24 00:59:41;;;;;;;4.95;2.00;;;;;;;;;;684806;28;890;-67
2024/01/24 01:00:01;;;;;;;6.53;2.20;;;;;;;;;;686399;28;2227;-64
2024/01/24 01:00:22;;;;;;;6.68;2.20;;;;;;;;;;684303;28;818;-64
2024/01/24 01:00:42;;;;;;;5.13;2.00;;;;;;;;;;683546;28;974;-64
2024/01/24 01:01:02;;;;;;;5.03;1.97;;;;;;;;;;681121;29;2071;-65
2024/01/24 01:01:23;;;;;;;4.37;1.80;;;;;;;;;;681851;29;917;-65
2024/01/24 01:01:43;;;;;;;5.47;1.63;;;;;;;;;;683868;28;4372;-63
2024/01/24 01:02:03;;;;;;;4.90;1.63;;;;;;;;;;678630;28;1714;-63
2024/01/24 01:02:23;;;;;;;6.00;1.70;;;;;;;;;;683542;28;868;-65
2024/01/24 01:02:44;;;;;;;3.87;1.70;;;;;;;;;;682096;28;843;-65
2024/01/24 01:03:04;;;;;;;4.20;1.77;;;;;;;;;;681239;28;1467;-65
2024/01/24 01:03:24;;;;;;;4.60;1.60;;;;;;;;;;683878;28;767;-66
2024/01/24 01:03:45;;;;;;;4.90;2.10;;;;;;;;;;683420;28;988;-65
2024/01/24 01:04:05;;;;;;;5.37;2.03;;;;;;;;;;682242;28;1544;-67
2024/01/24 01:04:25;;;;;;;4.40;1.60;;;;;;;;;;684320;28;4912;-65
2024/01/24 01:04:45;;;;;;;4.97;1.70;;;;;;;;;;684622;28;845;-63
2024/01/24 01:05:06;;;;;;;5.55;1.80;;;;;;;;;;683867;28;1055;-64
2024/01/24 01:05:26;;;;;;;6.13;1.90;;;;;;;;;;682054;29;874;-66
2024/01/24 01:05:46;;;;;;;6.00;1.65;;;;;;;;;;681611;29;962;-64
2024/01/24 01:06:07;;;;;;;4.53;1.60;;;;;;;;;;680553;29;2198;-61
2024/01/24 01:06:27;;;;;;;3.57;1.67;;;;;;;;;;682179;29;866;-64
2024/01/24 01:06:47;;;;;;;4.53;1.70;;;;;;;;;;681784;29;815;-65
2024/01/24 01:07:07;;;;;;;5.33;2.20;;;;;;;;;;678751;29;2403;-64
2024/01/24 01:07:28;;;;;;;5.50;1.60;;;;;;;;;;684436;28;4858;-62
2024/01/24 01:07:48;;;;;;;5.30;1.70;;;;;;;;;;684765;28;960;-64
2024/01/24 01:08:08;;;;;;;4.90;1.80;;;;;;;;;;683627;28;1766;-64
2024/01/24 01:08:29;;;;;;;5.13;1.90;;;;;;;;;;684557;28;825;-64
2024/01/24 01:08:49;;;;;;;4.63;1.67;;;;;;;;;;684600;28;938;-66
2024/01/24 01:09:10;;;;;;;4.68;1.65;;;;;;;;;;683708;28;994;-68
2024/01/24 01:09:31;;;;;;;4.28;1.50;;;;;;;;;;687794;28;905;-69
2024/01/24 01:09:51;;;;;;;4.15;1.58;;;;;;;;;;686190;28;2117;-64
2024/01/24 01:10:12;;;;;;;4.53;1.60;;;;;;;;;;686981;28;902;-64
2024/01/24 01:10:32;;;;;;;5.50;1.90;;;;;;;;;;687326;28;4448;-63
2024/01/24 01:10:52;;;;;;;5.43;1.80;;;;;;;;;;688733;28;2422;-63
2024/01/24 01:11:12;;;;;;;4.47;1.63;;;;;;;;;;689372;28;857;-63
2024/01/24 01:11:33;;;;;;;4.00;1.70;;;;;;;;;;687465;28;885;-64
2024/01/24 01:11:53;;;;;;;5.63;1.70;;;;;;;;;;686434;28;1759;-63
2024/01/24 01:12:13;;;;;;;5.27;1.63;;;;;;;;;;687238;28;936;-64
2024/01/24 01:12:34;;;;;;;3.72;1.50;;;;;;;;;;689890;28;948;-64
2024/01/24 01:12:54;;;;;;;4.47;1.57;;;;;;;;;;688495;28;2273;-65
2024/01/24 01:13:14;;;;;;;3.70;1.50;;;;;;;;;;687511;28;932;-65
2024/01/24 01:13:35;;;;;;;5.73;1.70;;;;;;;;;;689721;28;4445;-63
2024/01/24 01:13:55;;;;;;;5.10;1.70;;;;;;;;;;688808;28;1503;-63
2024/01/24 01:14:15;;;;;;;4.70;1.60;;;;;;;;;;689566;28;1926;-62
2024/01/24 01:14:37;;;;;;;4.83;1.80;;;;;;;;;;687595;28;909;-64
2024/01/24 01:14:57;;;;;;;3.80;1.60;;;;;;;;;;685892;28;1911;-64
2024/01/24 01:15:18;;;;;;;3.70;1.70;;;;;;;;;;687339;28;975;-65
2024/01/24 01:15:38;;;;;;;3.63;1.70;;;;;;;;;;687584;28;817;-65
2024/01/24 01:15:58;;;;;;;4.93;1.75;;;;;;;;;;686404;28;1677;-66
2024/01/24 01:16:18;;;;;;;4.27;1.50;;;;;;;;;;687193;28;1117;-66
2024/01/24 01:16:39;;;;;;;4.77;1.47;;;;;;;;;;684737;28;4271;-63
2024/01/24 01:16:59;;;;;;;4.43;1.58;;;;;;;;;;683054;28;1453;-64
2024/01/24 01:17:20;;;;;;;6.30;1.90;;;;;;;;;;684377;28;964;-64
2024/01/24 01:17:40;;;;;;;6.00;1.85;;;;;;;;;;684882;28;782;-62
2024/01/24 01:18:00;;;;;;;6.57;1.93;;;;;;;;;;683565;28;1813;-62
2024/01/24 01:18:21;;;;;;;5.38;1.80;;;;;;;;;;684595;28;834;-63
2024/01/24 01:18:41;;;;;;;5.67;1.80;;;;;;;;;;685033;28;818;-63
2024/01/24 01:19:01;;;;;;;5.57;1.70;;;;;;;;;;683466;28;2356;-62
2024/01/24 01:19:21;;;;;;;3.70;1.50;;;;;;;;;;684727;28;1039;-64
2024/01/24 01:19:42;;;;;;;3.40;1.52;;;;;;;;;;684277;28;4254;-65
2024/01/24 01:20:03;;;;;;;5.33;1.90;;;;;;;;;;683687;28;1975;-63
2024/01/24 01:20:23;;;;;;;4.28;1.63;;;;;;;;;;684881;28;1039;-63
2024/01/24 01:20:43;;;;;;;4.75;1.70;;;;;;;;;;684116;28;818;-67
2024/01/24 01:21:04;;;;;;;3.53;1.50;;;;;;;;;;683510;28;1828;-64
2024/01/24 01:21:24;;;;;;;3.87;1.60;;;;;;;;;;684869;28;913;-67
2024/01/24 01:21:45;;;;;;;4.35;1.60;;;;;;;;;;684634;28;871;-66
2024/01/24 01:22:05;;;;;;;3.93;1.60;;;;;;;;;;683042;28;2303;-67
2024/01/24 01:22:25;;;;;;;5.43;1.70;;;;;;;;;;684449;28;4298;-67
2024/01/24 01:22:46;;;;;;;4.07;1.50;;;;;;;;;;687234;28;1206;-65
2024/01/24 01:23:06;;;;;;;3.93;1.60;;;;;;;;;;685481;28;1698;-67
2024/01/24 01:23:26;;;;;;;5.37;1.93;;;;;;;;;;687663;28;818;-65
2024/01/24 01:23:46;;;;;;;5.90;1.90;;;;;;;;;;687009;28;1174;-66
2024/01/24 01:24:08;;;;;;;4.27;1.73;;;;;;;;;;686598;28;1917;-64
2024/01/24 01:24:28;;;;;;;4.35;1.80;;;;;;;;;;687752;28;810;-63
2024/01/24 01:24:48;;;;;;;4.07;1.70;;;;;;;;;;686607;28;917;-64
2024/01/24 01:25:09;;;;;;;3.67;1.50;;;;;;;;;;685880;28;2299;-63
2024/01/24 01:25:29;;;;;;;3.35;1.45;;;;;;;;;;686124;28;4346;-68
2024/01/24 01:25:49;;;;;;;4.43;1.57;;;;;;;;;;684525;28;957;-63
2024/01/24 01:26:09;;;;;;;5.53;1.70;;;;;;;;;;680969;29;2439;-64
2024/01/24 01:26:31;;;;;;;5.13;1.75;;;;;;;;;;681822;29;855;-64
2024/01/24 01:26:51;;;;;;;6.25;1.75;;;;;;;;;;681990;28;829;-62
2024/01/24 01:27:11;;;;;;;5.67;2.07;;;;;;;;;;683474;28;1561;-66
2024/01/24 01:27:32;;;;;;;3.90;1.70;;;;;;;;;;684364;28;851;-64
2024/01/24 01:27:52;;;;;;;4.13;1.70;;;;;;;;;;683061;28;2070;-64
2024/01/24 01:28:12;;;;;;;4.67;1.63;;;;;;;;;;684082;28;882;-63
2024/01/24 01:28:32;;;;;;;4.47;1.80;;;;;;;;;;685398;28;4405;-64
2024/01/24 01:28:53;;;;;;;3.90;1.53;;;;;;;;;;686083;28;2193;-62
2024/01/24 01:29:13;;;;;;;5.80;1.70;;;;;;;;;;686924;28;944;-66
2024/01/24 01:29:33;;;;;;;6.40;1.80;;;;;;;;;;682944;28;775;-66
2024/01/24 01:29:53;;;;;;;6.07;2.00;;;;;;;;;;683561;28;1465;-65
2024/01/24 01:30:14;;;;;;;5.47;1.53;;;;;;;;;;684379;28;905;-64
2024/01/24 01:30:34;;;;;;;4.60;1.70;;;;;;;;;;686733;28;929;-65
2024/01/24 01:30:54;;;;;;;3.57;1.50;;;;;;;;;;686125;28;2072;-66
2024/01/24 01:31:14;;;;;;;4.63;1.87;;;;;;;;;;686581;28;882;-64
2024/01/24 01:31:35;;;;;;;5.80;1.90;;;;;;;;;;686969;28;4436;-67
2024/01/24 01:31:55;;;;;;;4.13;1.70;;;;;;;;;;686473;28;1168;-65
2024/01/24 01:32:15;;;;;;;4.60;1.80;;;;;;;;;;686216;28;884;-63
2024/01/24 01:32:35;;;;;;;5.00;2.07;;;;;;;;;;687703;28;890;-65
2024/01/24 01:32:56;;;;;;;5.87;2.00;;;;;;;;;;686342;28;6737;-65
2024/01/24 01:33:16;;;;;;;5.35;2.30;;;;;;;;;;686073;28;4939;-65
2024/01/24 01:33:36;;;;;;;4.43;1.90;;;;;;;;;;686840;28;854;-67
2024/01/24 01:33:57;;;;;;;3.50;1.63;;;;;;;;;;686377;28;1695;-64
2024/01/24 01:34:17;;;;;;;4.10;1.60;;;;;;;;;;687228;28;1922;-65
2024/01/24 01:34:37;;;;;;;4.90;1.77;;;;;;;;;;687177;28;5023;-63
2024/01/24 01:34:59;;;;;;;3.60;1.70;;;;;;;;;;686194;28;1594;-68
2024/01/24 01:35:19;;;;;;;3.40;1.60;;;;;;;;;;687064;28;981;-64
2024/01/24 01:35:39;;;;;;;4.28;1.73;;;;;;;;;;687332;28;794;-65
2024/01/24 01:36:00;;;;;;;3.63;1.67;;;;;;;;;;685626;28;2594;-66
2024/01/24 01:36:20;;;;;;;5.43;2.03;;;;;;;;;;686433;28;897;-63
2024/01/24 01:36:40;;;;;;;6.17;2.33;;;;;;;;;;687136;28;933;-63
2024/01/24 01:37:00;;;;;;;4.80;1.60;;;;;;;;;;686256;28;1947;-64
2024/01/24 01:37:23;;;;;;;5.20;1.90;;;;;;;;;;687174;28;867;-66
2024/01/24 01:37:43;;;;;;;4.95;2.00;;;;;;;;;;686835;28;4377;-65
2024/01/24 01:38:04;;;;;;;4.30;1.80;;;;;;;;;;686228;28;2248;-65
2024/01/24 01:38:24;;;;;;;4.30;1.70;;;;;;;;;;687413;28;845;-65
2024/01/24 01:38:44;;;;;;;4.20;1.50;;;;;;;;;;687438;28;1075;-66
2024/01/24 01:39:04;;;;;;;5.10;1.70;;;;;;;;;;686318;28;1742;-65
2024/01/24 01:39:25;;;;;;;4.93;1.70;;;;;;;;;;686959;28;1158;-67
2024/01/24 01:39:45;;;;;;;4.47;1.70;;;;;;;;;;687269;28;854;-66
2024/01/24 01:40:06;;;;;;;5.33;1.97;;;;;;;;;;686267;28;1693;-64
2024/01/24 01:40:26;;;;;;;5.07;1.95;;;;;;;;;;686137;28;4384;-64
2024/01/24 01:40:46;;;;;;;5.50;2.00;;;;;;;;;;687160;28;735;-63
2024/01/24 01:41:07;;;;;;;5.30;1.80;;;;;;;;;;686453;28;1700;-66
2024/01/24 01:41:27;;;;;;;3.93;1.73;;;;;;;;;;684501;28;1347;-64
2024/01/24 01:41:48;;;;;;;3.90;1.80;;;;;;;;;;686985;28;841;-66
2024/01/24 01:42:08;;;;;;;4.70;1.63;;;;;;;;;;686188;28;1867;-63
2024/01/24 01:42:28;;;;;;;4.67;1.63;;;;;;;;;;686920;28;964;-67
2024/01/24 01:42:49;;;;;;;4.05;1.63;;;;;;;;;;687083;28;853;-68
2024/01/24 01:43:13;;;;;;;4.00;1.70;;;;;;;;;;682745;28;1462;-70
2024/01/24 01:43:33;;;;;;;5.70;1.70;;;;;;;;;;684511;28;4409;-69
2024/01/24 01:43:53;;;;;;;5.10;1.67;;;;;;;;;;684511;28;1834;-67
2024/01/24 01:44:15;;;;;;;3.87;1.70;;;;;;;;;;682853;28;1234;-67
2024/01/24 01:44:40;;;;;;;4.97;1.90;;;;;;;;;;681609;28;894;-68
2024/01/24 01:45:03;;;;;;;6.50;1.92;;;;;;;;;;681682;28;2286;-69
2024/01/24 01:45:23;;;;;;;3.78;1.63;;;;;;;;;;686189;28;1043;-69
2024/01/24 01:45:44;;;;;;;3.50;1.50;;;;;;;;;;687018;28;865;-68
2024/01/24 01:46:10;;;;;;;5.25;1.90;;;;;;;;;;683809;28;2679;-66
2024/01/24 01:46:31;;;;;;;4.03;1.60;;;;;;;;;;683960;28;4338;-67
2024/01/24 01:46:52;;;;;;;4.00;1.65;;;;;;;;;;679797;29;1876;-72
2024/01/24 01:47:16;;;;;;;4.18;1.65;;;;;;;;;;679268;28;1794;-66
2024/01/24 01:47:37;;;;;;;5.10;1.85;;;;;;;;;;680249;29;905;-66
2024/01/24 01:47:57;;;;;;;5.80;1.90;;;;;;;;;;681522;28;2148;-67
2024/01/24 01:48:17;;;;;;;5.00;1.80;;;;;;;;;;684930;28;881;-66
2024/01/24 01:48:38;;;;;;;3.53;1.70;;;;;;;;;;687541;28;960;-69
2024/01/24 01:48:58;;;;;;;3.35;1.80;;;;;;;;;;688476;28;1897;-67
2024/01/24 01:49:22;;;;;;;3.83;1.60;;;;;;;;;;690014;28;834;-66
2024/01/24 01:49:45;;;;;;;5.05;1.73;;;;;;;;;;689674;28;4259;-67
2024/01/24 01:50:12;;;;;;;4.57;1.65;;;;;;;;;;688478;28;1711;-66
2024/01/24 01:50:32;;;;;;;5.38;1.70;;;;;;;;;;687282;28;1074;-66
2024/01/24 01:50:53;;;;;;;4.57;1.60;;;;;;;;;;687599;28;833;-67
2024/01/24 01:51:14;;;;;;;3.70;1.40;;;;;;;;;;686461;28;1228;-67
2024/01/24 01:51:34;;;;;;;3.40;1.50;;;;;;;;;;686830;28;1336;-66
2024/01/24 01:51:56;;;;;;;3.05;1.60;;;;;;;;;;686727;28;1573;-65
2024/01/24 01:52:19;;;;;;;3.97;1.63;;;;;;;;;;686640;28;838;-69
2024/01/24 01:52:49;;;;;;;5.35;1.85;;;;;;;;;;682920;28;5071;-66
2024/01/24 01:53:09;;;;;;;4.93;2.10;;;;;;;;;;682355;28;1762;-66
2024/01/24 01:53:30;;;;;;;4.50;1.70;;;;;;;;;;684231;28;799;-66
2024/01/24 01:53:50;;;;;;;4.38;1.80;;;;;;;;;;683891;28;937;-66
2024/01/24 01:54:13;;;;;;;5.30;2.03;;;;;;;;;;682398;28;1910;-65
2024/01/24 01:54:33;;;;;;;5.22;1.83;;;;;;;;;;683838;28;1042;-66
2024/01/24 01:54:53;;;;;;;4.10;1.80;;;;;;;;;;684405;28;783;-66
2024/01/24 01:55:14;;;;;;;3.87;1.57;;;;;;;;;;683010;28;1444;-65
2024/01/24 01:55:35;;;;;;;4.05;1.60;;;;;;;;;;683838;28;4597;-65
2024/01/24 01:55:56;;;;;;;4.93;1.85;;;;;;;;;;683209;28;1742;-65
2024/01/24 01:56:18;;;;;;;4.47;1.90;;;;;;;;;;682323;28;2097;-69
2024/01/24 01:56:38;;;;;;;3.22;1.40;;;;;;;;;;684326;28;964;-67
2024/01/24 01:56:59;;;;;;;4.57;1.83;;;;;;;;;;683368;28;1590;-65
2024/01/24 01:57:19;;;;;;;5.00;1.77;;;;;;;;;;684139;28;1675;-63
2024/01/24 01:57:42;;;;;;;3.67;1.50;;;;;;;;;;684669;28;862;-66
2024/01/24 01:58:02;;;;;;;4.13;1.60;;;;;;;;;;683842;28;2350;-64
2024/01/24 01:58:23;;;;;;;4.45;1.90;;;;;;;;;;686727;28;897;-66
2024/01/24 01:58:44;;;;;;;4.33;1.70;;;;;;;;;;688798;28;4403;-66
2024/01/24 01:59:05;;;;;;;3.20;1.67;;;;;;;;;;688743;28;2356;-64
2024/01/24 01:59:25;;;;;;;2.88;1.50;;;;;;;;;;687368;28;853;-67
2024/01/24 01:59:46;;;;;;;2.72;1.30;;;;;;;;;;687250;28;794;-67
2024/01/24 02:00:08;;;;;;;2.50;1.40;;;;;;;;;;686015;28;1072;-67
2024/01/24 02:00:28;;;;;;;3.30;1.50;;;;;;;;;;683310;28;2232;-63
2024/01/24 02:00:49;;;;;;;3.78;1.50;;;;;;;;;;684435;28;925;-63
2024/01/24 02:01:10;;;;;;;3.80;1.50;;;;;;;;;;683086;28;2559;-63
2024/01/24 02:01:38;;;;;;;3.92;1.63;;;;;;;;;;682494;28;4486;-62
2024/01/24 02:02:00;;;;;;;4.57;1.67;;;;;;;;;;683698;28;2034;-66
2024/01/24 02:02:22;;;;;;;3.70;1.67;;;;;;;;;;688345;28;842;-65
2024/01/24 02:02:42;;;;;;;3.50;1.77;;;;;;;;;;688671;28;866;-63
2024/01/24 02:03:02;;;;;;;3.63;1.60;;;;;;;;;;688783;28;1708;-66
2024/01/24 02:03:23;;;;;;;4.40;1.57;;;;;;;;;;689480;28;897;-64
2024/01/24 02:03:43;;;;;;;3.75;1.60;;;;;;;;;;687102;28;862;-63
2024/01/24 02:04:04;;;;;;;4.87;1.63;;;;;;;;;;688859;28;1465;-63
2024/01/24 02:04:25;;;;;;;5.18;1.50;;;;;;;;;;689639;28;5251;-63
2024/01/24 02:04:45;;;;;;;4.17;1.60;;;;;;;;;;689594;28;986;-65
2024/01/24 02:05:06;;;;;;;4.93;1.73;;;;;;;;;;686095;28;1724;-63
2024/01/24 02:05:27;;;;;;;4.35;1.70;;;;;;;;;;684330;28;1367;-63
2024/01/24 02:05:47;;;;;;;3.77;1.40;;;;;;;;;;684337;28;924;-65
2024/01/24 02:06:08;;;;;;;3.95;1.40;;;;;;;;;;683741;28;2502;-65
2024/01/24 02:06:28;;;;;;;3.53;1.40;;;;;;;;;;684889;28;881;-65
2024/01/24 02:06:49;;;;;;;3.42;1.40;;;;;;;;;;684452;28;952;-65
2024/01/24 02:07:09;;;;;;;5.37;1.50;;;;;;;;;;685279;28;1704;-64
2024/01/24 02:07:29;;;;;;;5.07;1.60;;;;;;;;;;687073;28;4349;-64
2024/01/24 02:07:49;;;;;;;4.07;1.63;;;;;;;;;;687274;28;921;-64
2024/01/24 02:08:09;;;;;;;4.07;1.50;;;;;;;;;;686224;28;1926;-64
2024/01/24 02:08:34;;;;;;;5.27;1.50;;;;;;;;;;687169;28;1173;-65
2024/01/24 02:08:54;;;;;;;4.43;1.50;;;;;;;;;;686232;28;908;-64